Rocky Mountain National Park, CO

7:50 PM MST on December 27, 2014 (GMT -0700)
Fort Collins-Loveland Municipal | Change Station
CLOSE
Current Station
Airport
Location: Fort Collins,
Elevation: 5016 ft
Nearby Weather Stations

Elev 5016 ft 40.45 °N, 105.01 °W | Updated 15 minutes ago

Clear
Clear
14 °F
Feels Like 8 °F
N
4
Wind Variable Wind from North

Today
High -- | Low -- °F
--% Chance of Precip.
Yesterday
High -- | Low -- °F
Precip. -- in
7:24 AM 4:42 PM
Waxing Crescent, 42% visible
Pressure 30.07 in
Visibility 10.0 miles
Clouds Clear
Windchill 8 °F
Dew Point 9 °F
Humidity 79%
Rainfall 0.00 in
Snow Depth Not available.
UV 0 out of 12
Pollen .10 out of 12
Air Quality Not available.
Flu Activity Not available.
METAR KFNL 280235Z AUTO 01003KT 10SM CLR M10/M13 A3007 RMK AO1

More Conditions Fewer Conditions

Pressure 30.07 in
Visibility 10.0 miles
Clouds Clear
Windchill 8 °F
Dew Point 9 °F
Humidity 79%
Rainfall 0.00 in
Snow Depth Not available.
UV 0 out of 12
Pollen .10 out of 12
Air Quality Not available.
Flu Activity Not available.
METAR KFNL 280235Z AUTO 01003KT 10SM CLR M10/M13 A3007 RMK AO1

More Conditions Fewer Conditions

10-Day Weather Forecast

Almanac

Astronomy

Dec. 27, 2014 Rise Set
Actual Time
Civil Twilight
Nautical Twilight
Astronomical Twilight
Moon
Length of Visible Light
Length of Day
Tomorrow will be .
, % of the Moon is Illuminated

Today's Extremes

State Highs State Lows

Community

WunderPhotos

Upload Photos

1,781,144 photos uploaded!

WunderBlogs® & News

Nearby

Air Quality

  Air Quality AQ Index Pollutant
Not available.

Snow Depth

Station Depth Elevation

Earthquake Activity

City Distance Mag. Time & Date
Minimum magnitude displayed is 2.5.

Coastal Water Temperatures

Place Temperature

Nearby Weather Stations